Time;durP1;ratioP1;P1;durP2;ratioP2;P2;SDS_P1;SDS_P2;PMS_P1;PMS_P2;Temp;Humidity;BMP_temperature;BMP_pressure;BME280_temperature;BME280_humidity;BME280_pressure;Samples;Min_cycle;Max_cycle;Signal;HPM_P1;HPM_P2
2021/10/20 00:02:17;;;;;;;5.97;3.07;;;;;;;11.90;74.62;97233.50;5035104;28;20057;-72
2021/10/20 00:04:43;;;;;;;6.45;3.42;;;;;;;11.96;74.02;97239.50;5035170;28;20097;-73
2021/10/20 00:07:08;;;;;;;6.10;3.00;;;;;;;12.00;74.17;97232.28;5034897;28;20443;-72
2021/10/20 00:09:33;;;;;;;5.07;2.77;;;;;;;12.04;73.90;97234.00;5033657;28;20547;-73
2021/10/20 00:11:59;;;;;;;5.50;3.10;;;;;;;12.04;73.94;97230.47;5033205;28;20485;-72
2021/10/20 00:14:25;;;;;;;7.13;2.90;;;;;;;12.07;73.78;97224.41;5035049;28;20022;-73
2021/10/20 00:16:50;;;;;;;6.78;2.88;;;;;;;12.06;73.91;97231.75;5035077;28;20112;-72
2021/10/20 00:19:17;;;;;;;6.18;3.20;;;;;;;12.06;73.49;97223.59;5034954;28;20104;-72
2021/10/20 00:21:43;;;;;;;6.80;2.88;;;;;;;12.08;73.52;97224.03;5034590;28;20104;-72
2021/10/20 00:24:09;;;;;;;5.10;2.80;;;;;;;12.09;73.51;97214.00;5034682;28;20112;-73
2021/10/20 00:26:34;;;;;;;5.10;2.80;;;;;;;12.06;73.57;97215.47;5034921;28;20471;-72
2021/10/20 00:28:59;;;;;;;5.33;2.93;;;;;;;12.06;73.28;97214.66;5034418;28;20337;-75
2021/10/20 00:31:25;;;;;;;5.60;2.80;;;;;;;12.11;72.63;97217.97;5034412;28;20049;-72
2021/10/20 00:33:50;;;;;;;5.93;2.90;;;;;;;12.12;72.67;97211.41;5033203;28;20029;-72
2021/10/20 00:36:16;;;;;;;5.03;2.50;;;;;;;12.26;71.63;97210.31;5034386;28;20021;-75
2021/10/20 00:38:42;;;;;;;7.15;3.10;;;;;;;12.36;70.98;97207.94;5034436;28;20419;-72
2021/10/20 00:41:08;;;;;;;4.90;2.53;;;;;;;12.48;70.80;97204.47;5033843;28;20120;-72
2021/10/20 00:43:33;;;;;;;6.30;2.90;;;;;;;12.57;70.30;97204.38;5034215;28;20100;-72
2021/10/20 00:45:59;;;;;;;4.93;2.60;;;;;;;12.63;69.98;97203.81;5033095;28;20049;-72
2021/10/20 00:48:24;;;;;;;4.97;2.50;;;;;;;12.75;69.29;97201.06;5034058;28;20024;-73
2021/10/20 00:50:49;;;;;;;4.67;2.60;;;;;;;12.76;69.35;97199.94;5033767;28;20108;-72
2021/10/20 00:53:15;;;;;;;5.53;2.70;;;;;;;12.82;68.63;97192.38;5033972;28;20021;-72
2021/10/20 00:55:40;;;;;;;5.13;2.60;;;;;;;12.90;68.51;97191.47;5032566;28;20052;-72
2021/10/20 00:58:06;;;;;;;5.37;2.83;;;;;;;12.89;68.66;97187.16;5034171;28;20061;-73
2021/10/20 01:00:32;;;;;;;5.20;2.60;;;;;;;13.02;67.90;97190.63;5033875;28;20025;-72
2021/10/20 01:02:57;;;;;;;4.70;2.60;;;;;;;12.97;68.12;97183.53;5033840;28;20104;-72
2021/10/20 01:05:23;;;;;;;4.85;2.60;;;;;;;12.99;67.52;97175.84;5033813;28;20025;-72
2021/10/20 01:07:49;;;;;;;4.97;2.87;;;;;;;13.00;66.98;97163.03;5033663;28;20087;-72
2021/10/20 01:10:15;;;;;;;6.00;2.75;;;;;;;13.10;65.98;97171.50;5033635;28;20666;-73
2021/10/20 01:12:41;;;;;;;4.20;2.22;;;;;;;13.16;65.71;97163.91;5033993;28;20029;-73
2021/10/20 01:15:10;;;;;;;5.53;2.40;;;;;;;13.21;64.88;97167.22;5033912;28;20029;-72
2021/10/20 01:17:35;;;;;;;5.63;2.20;;;;;;;13.21;65.30;97163.72;5033888;28;20066;-73
2021/10/20 01:20:03;;;;;;;4.60;2.53;;;;;;;13.27;64.85;97156.88;5033638;28;20025;-73
2021/10/20 01:22:28;;;;;;;4.80;2.20;;;;;;;13.21;65.02;97147.41;5033548;28;20036;-72
2021/10/20 01:24:54;;;;;;;4.97;2.47;;;;;;;13.13;65.00;97151.03;5032230;28;20025;-73
2021/10/20 01:27:19;;;;;;;5.10;2.50;;;;;;;13.13;64.90;97137.44;5033492;28;20072;-72
2021/10/20 01:29:45;;;;;;;5.23;2.40;;;;;;;13.02;65.53;97136.28;5032218;28;20021;-72
2021/10/20 01:32:10;;;;;;;5.10;2.67;;;;;;;12.94;65.30;97136.09;5033310;28;20483;-72
2021/10/20 01:34:35;;;;;;;5.18;2.30;;;;;;;12.98;65.09;97129.97;5033308;28;20033;-72
2021/10/20 01:37:03;;;;;;;5.90;2.63;;;;;;;13.05;64.26;97122.84;5032225;28;20041;-73
2021/10/20 01:39:28;;;;;;;5.57;2.30;;;;;;;13.09;64.12;97115.56;5033610;28;20079;-73
2021/10/20 01:41:54;;;;;;;4.47;2.20;;;;;;;13.06;64.34;97119.00;5033122;28;20037;-73
2021/10/20 01:44:19;;;;;;;5.50;2.60;;;;;;;13.15;63.54;97114.22;5032229;28;20029;-73
2021/10/20 01:46:45;;;;;;;5.10;2.53;;;;;;;13.23;62.79;97113.28;5031981;28;20467;-73
2021/10/20 01:49:10;;;;;;;3.90;2.10;;;;;;;13.27;62.35;97103.31;5033295;28;20036;-72
2021/10/20 01:51:36;;;;;;;5.17;2.00;;;;;;;13.28;61.94;97101.41;5033826;28;20029;-74
2021/10/20 01:54:03;;;;;;;4.50;2.13;;;;;;;13.29;62.15;97089.38;5037305;28;20029;-72
2021/10/20 01:56:28;;;;;;;4.95;2.25;;;;;;;13.30;61.43;97088.22;5036190;28;20060;-72
2021/10/20 01:58:54;;;;;;;5.27;2.03;;;;;;;13.36;60.93;97088.78;5036187;28;20113;-72
2021/10/20 02:01:19;;;;;;;6.60;2.40;;;;;;;13.41;60.39;97077.66;5037163;28;20049;-73
2021/10/20 02:03:45;;;;;;;3.87;2.10;;;;;;;13.39;60.27;97074.50;5037264;28;20060;-73
2021/10/20 02:06:14;;;;;;;4.03;1.80;;;;;;;13.37;60.72;97072.13;5037215;28;20026;-73
2021/10/20 02:08:41;;;;;;;5.20;2.40;;;;;;;13.31;60.99;97070.78;5037255;28;20460;-72
2021/10/20 02:11:07;;;;;;;4.17;2.23;;;;;;;13.28;61.08;97061.41;5037129;28;20490;-72
2021/10/20 02:13:33;;;;;;;5.03;2.47;;;;;;;13.22;61.15;97062.78;5036884;28;20079;-73
2021/10/20 02:15:59;;;;;;;4.40;2.30;;;;;;;13.21;60.74;97063.94;5036949;28;20478;-72
2021/10/20 02:18:24;;;;;;;4.60;2.30;;;;;;;13.29;60.09;97054.03;5035468;28;20076;-72
2021/10/20 02:20:52;;;;;;;4.60;2.20;;;;;;;13.39;59.75;97045.38;5036787;28;20108;-72
2021/10/20 02:23:18;;;;;;;4.95;2.00;;;;;;;13.45;59.25;97045.91;5035713;28;20403;-72
2021/10/20 02:25:44;;;;;;;3.80;2.00;;;;;;;13.51;58.97;97039.88;5037060;28;20037;-72
2021/10/20 02:28:09;;;;;;;5.10;2.10;;;;;;;13.49;59.06;97047.59;5036722;28;20030;-72
2021/10/20 02:30:35;;;;;;;5.10;2.30;;;;;;;13.50;59.48;97043.72;5036510;28;20044;-72
2021/10/20 02:33:00;;;;;;;5.63;2.50;;;;;;;13.45;59.56;97043.97;5036725;28;20053;-72
2021/10/20 02:35:25;;;;;;;5.30;2.13;;;;;;;13.42;59.61;97041.97;5036673;28;20355;-72
2021/10/20 02:37:51;;;;;;;4.27;2.30;;;;;;;13.43;59.34;97042.78;5035464;28;20134;-72
2021/10/20 02:40:16;;;;;;;4.03;2.33;;;;;;;13.42;59.33;97038.47;5036599;28;20022;-72
2021/10/20 02:42:42;;;;;;;4.00;2.10;;;;;;;13.44;59.42;97036.16;5036758;28;20021;-72
2021/10/20 02:45:10;;;;;;;4.85;2.40;;;;;;;13.50;58.86;97032.09;5036351;28;20024;-72
2021/10/20 02:47:35;;;;;;;4.25;2.08;;;;;;;13.50;59.30;97037.53;5035455;28;20337;-71
2021/10/20 02:50:00;;;;;;;5.27;2.43;;;;;;;13.47;59.29;97030.84;5036422;28;20025;-72
2021/10/20 02:52:26;;;;;;;4.47;2.10;;;;;;;13.51;58.85;97026.28;5036092;28;20021;-72
2021/10/20 02:54:51;;;;;;;5.00;2.20;;;;;;;13.52;58.85;97024.34;5036011;28;20068;-72
2021/10/20 02:57:17;;;;;;;4.83;2.37;;;;;;;13.63;57.98;97022.72;5036363;28;20061;-72
2021/10/20 02:59:42;;;;;;;3.90;2.00;;;;;;;13.66;57.66;97017.34;5036121;28;20053;-72
2021/10/20 03:02:08;;;;;;;4.97;2.30;;;;;;;13.73;57.31;97024.91;5035994;28;20083;-72
2021/10/20 03:04:33;;;;;;;4.83;2.50;;;;;;;13.86;56.76;97017.44;5034296;28;20021;-72
2021/10/20 03:06:58;;;;;;;3.73;1.97;;;;;;;13.80;57.42;97019.63;5035971;28;20017;-71
2021/10/20 03:09:24;;;;;;;4.33;1.90;;;;;;;13.75;57.46;97016.38;5035989;28;20045;-72
2021/10/20 03:11:49;;;;;;;4.38;1.90;;;;;;;13.72;57.83;97018.66;5034464;28;20060;-72
2021/10/20 03:14:15;;;;;;;4.50;2.30;;;;;;;13.73;57.19;97011.28;5034767;28;20033;-72
2021/10/20 03:16:41;;;;;;;4.17;2.00;;;;;;;13.67;57.58;97015.41;5035913;28;20025;-72
2021/10/20 03:19:07;;;;;;;4.85;2.10;;;;;;;13.63;58.04;97004.47;5034446;28;20438;-71
2021/10/20 03:21:32;;;;;;;4.53;2.10;;;;;;;13.66;57.33;97011.13;5034399;28;20025;-72
2021/10/20 03:23:57;;;;;;;5.90;2.17;;;;;;;13.61;57.59;97001.28;5035734;28;20047;-71
2021/10/20 03:26:23;;;;;;;5.37;2.20;;;;;;;13.63;57.39;97003.66;5034484;28;20056;-72
2021/10/20 03:28:48;;;;;;;4.45;2.10;;;;;;;13.61;57.35;96993.13;5035620;28;20033;-72
2021/10/20 03:31:13;;;;;;;4.27;2.40;;;;;;;13.70;56.80;96990.25;5034198;28;20021;-72
2021/10/20 03:33:39;;;;;;;5.10;2.47;;;;;;;13.65;57.61;96995.94;5035103;28;20094;-72
2021/10/20 03:36:07;;;;;;;4.23;2.30;;;;;;;13.59;58.12;96986.47;5035321;28;20109;-72
2021/10/20 03:38:32;;;;;;;5.15;2.15;;;;;;;13.60;58.03;96986.13;5035778;28;20029;-71
2021/10/20 03:40:57;;;;;;;5.00;2.40;;;;;;;13.55;58.48;96983.66;5035298;28;20475;-72
2021/10/20 03:43:22;;;;;;;4.97;2.57;;;;;;;13.53;58.53;96974.28;5035563;28;20068;-72
2021/10/20 03:45:48;;;;;;;4.87;2.10;;;;;;;13.45;59.64;96978.72;5035402;28;20048;-72
2021/10/20 03:48:13;;;;;;;5.63;2.50;;;;;;;13.33;60.43;96973.38;5035324;28;20047;-72
2021/10/20 03:50:41;;;;;;;5.27;2.60;;;;;;;13.19;61.43;96973.81;5035021;28;20570;-71
2021/10/20 03:53:06;;;;;;;5.05;2.40;;;;;;;13.05;61.87;96970.69;5033883;28;20044;-72
2021/10/20 03:55:31;;;;;;;5.18;2.70;;;;;;;12.98;62.14;96975.13;5035120;28;20021;-72
2021/10/20 03:57:58;;;;;;;4.93;2.37;;;;;;;12.88;62.58;96974.47;5033753;28;20079;-72
2021/10/20 04:00:24;;;;;;;4.60;2.40;;;;;;;12.84;63.15;96970.88;5035164;28;20483;-72
2021/10/20 04:02:49;;;;;;;4.50;2.15;;;;;;;12.85;62.53;96967.03;5033841;28;20032;-72
2021/10/20 04:05:17;;;;;;;5.03;2.67;;;;;;;12.93;62.47;96968.78;5033750;28;20025;-72
2021/10/20 04:07:44;;;;;;;4.68;2.17;;;;;;;12.88;62.79;96969.03;5035140;28;20080;-71
2021/10/20 04:10:18;;;;;;;4.95;2.50;;;;;;;13.05;61.52;96956.28;5033520;28;20485;-71
2021/10/20 04:12:44;;;;;;;5.50;2.50;;;;;;;13.05;61.76;96959.00;5035074;28;20033;-72
2021/10/20 04:15:10;;;;;;;5.35;2.55;;;;;;;13.04;62.18;96963.66;5033755;28;20021;-72
2021/10/20 04:17:38;;;;;;;5.30;2.55;;;;;;;12.98;62.13;96961.53;5034899;28;20037;-72
2021/10/20 04:20:06;;;;;;;4.78;2.22;;;;;;;12.94;62.19;96962.22;5034765;28;20100;-72
2021/10/20 04:22:32;;;;;;;4.05;2.25;;;;;;;12.98;61.64;96962.34;5034603;28;20025;-72
2021/10/20 04:24:57;;;;;;;5.43;2.60;;;;;;;13.13;61.17;96968.97;5034812;28;20043;-72
2021/10/20 04:27:23;;;;;;;4.57;2.37;;;;;;;13.04;61.54;96960.16;5034826;28;20471;-71
2021/10/20 04:29:49;;;;;;;4.80;2.40;;;;;;;13.03;61.98;96962.06;5034252;28;20035;-72
2021/10/20 04:32:15;;;;;;;5.65;2.60;;;;;;;12.86;62.88;96959.66;5030857;28;20475;-72
2021/10/20 04:34:40;;;;;;;4.17;2.40;;;;;;;12.84;62.75;96957.31;5040415;28;20029;-72
2021/10/20 04:37:05;;;;;;;5.27;2.53;;;;;;;12.77;63.28;96959.81;5035300;28;20037;-72
2021/10/20 04:39:31;;;;;;;6.28;2.58;;;;;;;12.76;63.25;96958.25;5032768;28;20025;-72
2021/10/20 04:41:56;;;;;;;4.23;2.30;;;;;;;12.83;62.88;96960.34;5035101;28;20442;-72
2021/10/20 04:44:21;;;;;;;4.47;2.30;;;;;;;12.86;62.57;96955.00;5034362;28;20105;-72
2021/10/20 04:46:47;;;;;;;5.07;2.50;;;;;;;12.87;62.60;96962.03;5038633;28;20025;-72
2021/10/20 04:49:12;;;;;;;6.23;2.50;;;;;;;12.95;61.40;96952.94;5038716;28;20029;-71
2021/10/20 04:51:38;;;;;;;6.10;2.30;;;;;;;13.16;60.28;96955.47;5037226;28;20029;-71
2021/10/20 04:54:03;;;;;;;4.73;2.27;;;;;;;13.28;59.92;96952.69;5040842;28;20187;-71
2021/10/20 04:56:28;;;;;;;5.03;2.37;;;;;;;13.19;60.73;96952.06;5040034;28;20075;-72
2021/10/20 04:58:55;;;;;;;4.13;2.20;;;;;;;13.15;60.86;96945.72;5040471;28;20491;-72
2021/10/20 05:01:20;;;;;;;5.32;2.30;;;;;;;13.21;60.43;96946.28;5041558;28;20018;-72
2021/10/20 05:03:45;;;;;;;4.80;2.20;;;;;;;13.12;61.22;96937.47;5040264;28;20035;-72
2021/10/20 05:06:11;;;;;;;4.90;2.40;;;;;;;13.11;61.02;96931.25;5031504;28;20444;-72
2021/10/20 05:08:36;;;;;;;4.23;2.10;;;;;;;13.08;61.17;96922.97;5031631;28;20443;-72
2021/10/20 05:11:01;;;;;;;4.30;2.30;;;;;;;13.02;61.31;96918.94;5034409;28;20029;-72
2021/10/20 05:13:27;;;;;;;5.03;2.47;;;;;;;13.05;61.44;96907.38;5033606;28;20049;-72
2021/10/20 05:15:52;;;;;;;4.23;2.37;;;;;;;13.06;61.58;96908.97;5032718;28;20279;-73
2021/10/20 05:18:17;;;;;;;4.63;2.70;;;;;;;13.11;61.19;96908.72;5031923;28;20036;-72
2021/10/20 05:20:43;;;;;;;6.23;2.43;;;;;;;13.08;61.23;96902.03;5037824;28;20037;-72
2021/10/20 05:23:11;;;;;;;4.87;2.33;;;;;;;13.19;60.73;96899.63;5042690;28;20494;-72
2021/10/20 05:25:39;;;;;;;5.03;2.40;;;;;;;13.14;61.24;96906.13;5052041;28;20021;-73
2021/10/20 05:28:06;;;;;;;4.47;2.50;;;;;;;13.14;60.86;96906.13;5042153;28;20086;-72
2021/10/20 05:30:32;;;;;;;4.90;2.22;;;;;;;13.17;60.71;96918.22;5033014;28;20113;-73
2021/10/20 05:32:57;;;;;;;5.07;2.70;;;;;;;13.16;61.17;96920.13;5038624;28;20052;-72
2021/10/20 05:35:23;;;;;;;6.38;2.58;;;;;;;13.17;60.83;96924.44;5044285;28;20114;-73
2021/10/20 05:37:51;;;;;;;4.70;2.27;;;;;;;13.11;61.38;96917.66;5043121;28;20076;-73
2021/10/20 05:40:21;;;;;;;4.57;2.60;;;;;;;13.11;61.49;96911.44;5043311;28;20031;-73
2021/10/20 05:42:47;;;;;;;5.22;2.33;;;;;;;13.14;60.91;96913.50;5041056;28;20115;-72
2021/10/20 05:45:13;;;;;;;4.53;2.40;;;;;;;13.11;61.21;96914.16;5053459;28;20060;-74
2021/10/20 05:47:38;;;;;;;5.72;2.78;;;;;;;13.09;61.35;96921.84;5041895;28;20075;-73
2021/10/20 05:50:05;;;;;;;4.40;2.50;;;;;;;13.01;61.72;96920.06;5032321;28;20021;-73
2021/10/20 05:52:31;;;;;;;5.28;2.60;;;;;;;12.95;62.07;96911.41;5033320;28;20104;-72
2021/10/20 05:54:57;;;;;;;4.07;2.30;;;;;;;12.86;62.59;96910.75;5033374;28;20531;-73
2021/10/20 05:57:23;;;;;;;4.95;2.67;;;;;;;12.82;62.82;96904.44;5032178;28;20464;-73
2021/10/20 05:59:48;;;;;;;4.63;2.60;;;;;;;12.82;62.53;96905.25;5033418;28;20044;-73
2021/10/20 06:02:14;;;;;;;4.23;2.47;;;;;;;12.91;62.79;96910.53;5033008;28;20505;-72
2021/10/20 06:04:40;;;;;;;5.85;2.60;;;;;;;13.08;62.20;96906.69;5031925;28;20116;-74
2021/10/20 06:07:06;;;;;;;5.72;2.53;;;;;;;13.22;62.32;96905.16;5034881;28;20033;-75
2021/10/20 06:09:55;;;;;;;5.53;2.50;;;;;;;13.44;61.70;96908.38;5031735;28;20032;-75
2021/10/20 06:12:21;;;;;;;4.83;2.30;;;;;;;13.59;61.61;96908.38;5031522;28;20534;-73
2021/10/20 06:14:47;;;;;;;5.53;2.50;;;;;;;13.70;60.89;96906.72;5044756;28;20100;-73
2021/10/20 06:17:12;;;;;;;5.38;2.60;;;;;;;13.79;61.21;96908.44;5035744;28;20128;-73
2021/10/20 06:19:38;;;;;;;5.17;2.57;;;;;;;13.89;61.63;96908.69;5032998;28;20025;-73
2021/10/20 06:22:03;;;;;;;5.80;2.70;;;;;;;13.99;61.31;96910.09;5033018;28;20030;-73
2021/10/20 06:24:28;;;;;;;4.57;2.40;;;;;;;14.15;61.19;96908.09;5031422;28;20034;-73
2021/10/20 06:26:54;;;;;;;4.53;2.63;;;;;;;14.16;61.98;96903.44;5031717;28;20025;-73
2021/10/20 06:29:21;;;;;;;6.03;2.50;;;;;;;14.27;61.86;96918.09;5032913;28;20044;-73
2021/10/20 06:31:46;;;;;;;5.07;2.70;;;;;;;14.12;61.43;96917.00;5032383;28;20052;-73
2021/10/20 06:34:12;;;;;;;7.27;2.80;;;;;;;14.30;61.35;96917.38;5031262;28;20030;-73
2021/10/20 06:36:40;;;;;;;4.80;2.72;;;;;;;14.34;60.91;96924.47;5032275;28;20148;-74
2021/10/20 06:39:06;;;;;;;4.75;2.60;;;;;;;14.48;61.46;96924.81;5033892;28;20029;-74
2021/10/20 06:41:31;;;;;;;5.20;2.67;;;;;;;14.54;61.69;96921.78;5035247;28;20369;-74
2021/10/20 06:43:57;;;;;;;5.13;2.80;;;;;;;14.71;61.05;96929.50;5035166;28;20029;-74
2021/10/20 06:46:22;;;;;;;4.60;2.30;;;;;;;14.56;61.05;96928.47;5033675;28;20025;-74
2021/10/20 06:48:48;;;;;;;4.90;2.50;;;;;;;14.80;61.25;96917.25;5034213;28;20029;-74
2021/10/20 06:51:14;;;;;;;4.20;2.50;;;;;;;14.66;59.91;96925.16;5035629;28;20041;-74
2021/10/20 06:53:39;;;;;;;5.18;2.58;;;;;;;15.01;61.61;96922.31;5035681;28;20390;-74
2021/10/20 06:56:07;;;;;;;5.73;2.57;;;;;;;15.18;61.37;96918.34;5034351;28;20029;-73
2021/10/20 06:58:33;;;;;;;5.88;3.10;;;;;;;15.21;59.71;96912.16;5035713;28;20047;-74
2021/10/20 07:00:59;;;;;;;5.13;2.75;;;;;;;15.42;59.84;96912.53;5035528;28;20515;-74
2021/10/20 07:03:24;;;;;;;5.30;2.40;;;;;;;15.46;59.89;96904.41;5035504;28;20032;-74
2021/10/20 07:05:49;;;;;;;5.17;2.60;;;;;;;15.54;59.10;96915.13;5035550;28;20021;-74
2021/10/20 07:08:15;;;;;;;5.00;2.40;;;;;;;15.90;60.30;96896.56;5034121;28;20068;-74
2021/10/20 07:10:40;;;;;;;6.87;2.47;;;;;;;15.74;59.83;96899.44;5035369;28;20032;-73
2021/10/20 07:13:06;;;;;;;5.65;2.55;;;;;;;15.77;60.08;96887.03;5034086;28;20487;-74
2021/10/20 07:15:31;;;;;;;5.30;2.60;;;;;;;16.31;59.27;96894.78;5035257;28;20037;-74
2021/10/20 07:17:57;;;;;;;6.80;2.67;;;;;;;16.27;58.69;96894.72;5035205;28;20025;-74
2021/10/20 07:20:22;;;;;;;6.47;2.53;;;;;;;16.48;59.08;96896.97;5035093;28;20082;-75
2021/10/20 07:22:48;;;;;;;5.38;2.58;;;;;;;16.21;59.48;96901.69;5035225;28;20045;-74
2021/10/20 07:25:15;;;;;;;6.17;2.77;;;;;;;17.17;58.16;96900.09;5035308;28;20075;-73
2021/10/20 07:27:41;;;;;;;4.40;2.50;;;;;;;17.05;57.10;96897.66;5033942;28;20017;-74
2021/10/20 07:30:08;;;;;;;6.63;2.63;;;;;;;17.10;56.56;96900.03;5034995;28;20036;-73
2021/10/20 07:32:33;;;;;;;5.20;2.93;;;;;;;16.75;58.39;96901.22;5033743;28;20067;-75
2021/10/20 07:34:59;;;;;;;4.88;2.45;;;;;;;17.31;56.34;96908.44;5034918;28;20120;-74
2021/10/20 07:37:24;;;;;;;4.87;2.77;;;;;;;17.75;57.54;96894.00;5035021;28;20488;-74
2021/10/20 07:39:49;;;;;;;5.80;2.87;;;;;;;17.89;58.14;96894.09;5035024;28;20486;-74
